Flugplatz Paderborn Lippstadt

Bericht für EDLP

vom 15.12. um 05:20 UTC

Wind 4 kt aus 250°

Sichtweite 10 km oder mehr

aufgebrochene Bewölkung in 1200 ft

Temperatur 2.0°C

Taupunkt 0.0°C

Luftfeuchtigkeit 87%

Luftdruck 992 hPa

EDLP 150520Z 25004KT 220V290 9999 BKN012 02/00 Q0992

Prognose für EDLP

vom 15.12. um 05:00 UTC

Zwischen 06:00 und 09:00 UTC übergehend zu

Wind 5 kt aus 190°

Sichtweite 10 km oder mehr

aufgebrochene Bewölkung in 2000 ft


Zwischen 06:00 UTC und 06:00 UTC

Wind 5 kt aus 260°

Sichtweite 10 km oder mehr

aufgebrochene Bewölkung in 800 ft


Zwischen 09:00 UTC und 14:00 UTC zeitweise

aufgebrochene Bewölkung in 1200 ft


Zwischen 14:00 und 18:00 UTC übergehend zu

variable Windrichtung mit 3 kt

Sichtweite 10 km oder mehr

aufgebrochene Bewölkung in 1200 ft


Am 16.12. zwischen 00:00 UTC und 06:00 UTC zeitweise

Sichtweite 3000 m

feuchter Dunst

aufgebrochene Bewölkung in 400 ft


Am 16.12. zwischen 03:00 und 06:00 UTC übergehend zu

Wind 7 kt aus 260°

Sichtweite 10 km oder mehr

aufgebrochene Bewölkung in 1200 ft

TAF EDLP 150500Z 1506/1606 26005KT 9999 BKN008 BECMG 1506/1509 19005KT BKN020 TEMPO 1509/1514 BKN012 BECMG 1514/1518 VRB03KT BKN012 TEMPO 1600/1606 3000 BR BKN004 BECMG 1603/1606 26007KT
Impressum